Nearby METAR Reports

 

KSJC - San Jose, California, USA
Distance from station: NE 14km
Actualización: 28/01/2020 03:53
Muy nuboso
Muy nuboso
 Viento del NO
Viento: NO 11 km/h
Temperatura: 12°C
Rocío: 9°C
Humedad: 82%
Barómetro: 1029.1 hPa
Clouds: Muy nuboso
Visibility: 16 km
Cloud details: Few Clouds 335 m
Parcialmente nuboso 792 m
Muy nuboso 1524 m
2020/01/28 02:53 KSJC 280253Z 32006KT 10SM FEW011 SCT026 BKN050 12/09 A3039 RMK AO2 SLP289 T01170089 53007
KNUQ - Moffett Nas/Mtn, California, USA
Distance from station: N 14km
Actualización: 21/11/2019 17:56
NOT Current

 
Barómetro: 1011.2 hPa
2019/11/21 16:56 KNUQ 211656Z AUTO A2986 RMK AO2 SLP116 PWINO $
 
KPAO - Palo Alto, California, USA
Distance from station: NNO 23km
Actualización: 28/01/2020 03:47
Muy nuboso
Muy nuboso
 Viento del NNO
Viento: NNO 15 km/h
Temperatura: 12°C
Rocío: 9°C
Humedad: 82%
Barómetro: 1029.1 hPa
Clouds: Muy nuboso
Visibility: 16 km
Cloud details: Muy nuboso 762 m
2020/01/28 02:47 KPAO 280247Z 33008KT 10SM BKN025 12/09 A3039
KRHV - San Jose/Reid, California, USA
Distance from station: ENE 19km
Actualización: 28/01/2020 03:47
Parcialmente nuboso
Parcialmente nuboso
 Viento del calm
Viento: Calma
Temperatura: 12°C
Rocío: 9°C
Humedad: 82%
Barómetro: 1029.1 hPa
Clouds: Parcialmente nuboso
Visibility: 16 km
Cloud details: Parcialmente nuboso 4572 m
2020/01/28 02:47 KRHV 280247Z 00000KT 10SM SCT150 12/09 A3039
 
KOAK - Oakland, California, USA
Distance from station: NNO 50km
Actualización: 28/01/2020 03:53
Muy nuboso
Muy nuboso
 Viento del O
Viento: O 11 km/h
Temperatura: 13°C
Rocío: 11°C
Humedad: 88%
Barómetro: 1029.1 hPa
Clouds: Muy nuboso
Visibility: 16 km
Cloud details: Few Clouds 366 m
Parcialmente nuboso 762 m
Muy nuboso 5486 m
2020/01/28 02:53 KOAK 280253Z 28006KT 10SM FEW012 SCT025 BKN180 13/11 A3039 RMK AO2 SLP292 T01330106 53005
KSQL - San Carlos Airpo, California, USA
Distance from station: NO 34km
Actualización: 28/01/2020 03:58
Muy nuboso
Muy nuboso
 Viento del O
Viento: O 11 km/h
Temperatura: 12°C
Rocío: 9°C
Humedad: 82%
Barómetro: 1029.5 hPa
Clouds: Muy nuboso
Visibility: 16 km
Cloud details: Muy nuboso 762 m
2020/01/28 02:58 KSQL 280258Z 28006KT 10SM BKN025 12/09 A3040
 
KSFO - San Francisco, California, USA
Distance from station: NO 49km
Actualización: 28/01/2020 03:56
Parcialmente nuboso
Parcialmente nuboso
 Viento del O
Viento: O 13 km/h
Temperatura: 13°C
Rocío: 9°C
Humedad: 77%
Barómetro: 1028.8 hPa
Clouds: Parcialmente nuboso
Visibility: 14 km
Cloud details: Few Clouds 671 m
Parcialmente nuboso 6096 m
2020/01/28 02:56 KSFO 280256Z 27007KT 9SM FEW022 SCT200 13/09 A3038 RMK AO2 SLP288 T01280094 52005
KE16 - San Martin, California, USA
Distance from station: ESE 43km
Actualización: 14/11/2019 10:35
NOT Current
Cubierto
Cubierto
 Viento del SE
Viento: SE 11 km/h
Temperatura: 12°C
Rocío: 10°C
Humedad: 88%
Barómetro: 1017.6 hPa
Clouds: Cubierto
Visibility: 16 km
Cloud details: Cubierto 427 m
2019/11/14 09:35 KE16 140935Z AUTO 13006KT 10SM OVC014 12/10 A3005 RMK AO2
 
KWVI - Watsonville, California, USA
Distance from station: SSE 44km
Actualización: 28/01/2020 03:53
Despejado
Despejado
 Viento del N
Viento: N 6 km/h
Temperatura: 12°C
Rocío: 9°C
Humedad: 82%
Barómetro: 1029.1 hPa
Clouds: Despejado
Visibility: 16 km
2020/01/28 02:53 KWVI 280253Z AUTO 36003KT 10SM CLR 12/09 A3039 RMK AO2 SLP289 T01170094 53005
KHAF - Half Moon Bay, California, USA
Distance from station: ONO 50km
Actualización: 28/01/2020 04:20
Mist, Cubierto
Mist, Cubierto
 Viento del calm
Viento: Calma
Temperatura: 12°C
Rocío: 10°C
Humedad: 88%
Barómetro: 1029.5 hPa
Resumen: Mist
Clouds: Cubierto
Visibility: 8 km
Cloud details: Cubierto 762 m
2020/01/28 03:20 KHAF 280320Z AUTO 00000KT 5SM BR OVC025 12/10 A3040 RMK AO2
 
KHWD - Hayward, California, USA
Distance from station: N 44km
Actualización: 28/01/2020 03:54
Muy nuboso
Muy nuboso
 Viento del ONO
Viento: ONO 9 km/h
Temperatura: 12°C
Rocío: 10°C
Humedad: 88%
Barómetro: 1029.1 hPa
Clouds: Muy nuboso
Visibility: 16 km
Cloud details: Muy nuboso 792 m
2020/01/28 02:54 KHWD 280254Z 29005KT 10SM BKN026 12/10 A3039 RMK AO2 SLP299 T01220100 53006
KLVK - Livermore, California, USA
Distance from station: NNE 51km
Actualización: 28/01/2020 04:08
Muy nuboso
Muy nuboso
 Viento del O
Viento: O 7 km/h
Temperatura: 11°C
Rocío: 8°C
Humedad: 82%
Barómetro: 1028.4 hPa
Clouds: Muy nuboso
Visibility: 16 km
Cloud details: Muy nuboso 610 m
2020/01/28 03:08 KLVK 280308Z 27004KT 10SM BKN020 11/08 A3037 RMK AO2 T01060083